Time;durP1;ratioP1;P1;durP2;ratioP2;P2;SDS_P1;SDS_P2;PMS_P1;PMS_P2;Temp;Humidity;BMP_temperature;BMP_pressure;BME280_temperature;BME280_humidity;BME280_pressure;Samples;Min_cycle;Max_cycle;Signal;HPM_P1;HPM_P2
2020/12/04 05:00:39;;;;;;;2.80;2.60;;;21.30;40.40;;;;;;6032868;23;20341;-75
2020/12/04 05:03:08;;;;;;;2.80;2.50;;;21.20;40.40;;;;;;4966140;23;20906;-75
2020/12/04 05:05:45;;;;;;;2.95;2.75;;;21.20;40.50;;;;;;4974511;28;20465;-75
2020/12/04 05:08:13;;;;;;;2.78;2.58;;;21.30;40.40;;;;;;4977203;28;20438;-75
2020/12/04 05:10:39;;;;;;;3.07;2.77;;;21.20;40.20;;;;;;4971005;28;20756;-76
2020/12/04 05:13:05;;;;;;;2.70;2.50;;;21.30;40.30;;;;;;4971401;28;21038;-75
2020/12/04 05:15:32;;;;;;;2.55;2.35;;;21.30;40.30;;;;;;4970503;28;20804;-76
2020/12/04 05:18:05;;;;;;;2.85;2.65;;;21.20;40.30;;;;;;4964333;28;20435;-75
2020/12/04 05:20:32;;;;;;;2.60;2.40;;;21.20;40.30;;;;;;4973481;28;20528;-75
2020/12/04 05:22:59;;;;;;;2.60;2.40;;;21.30;40.40;;;;;;4970806;28;20455;-75
2020/12/04 05:25:27;;;;;;;2.97;2.78;;;21.20;40.30;;;;;;4975726;28;21335;-75
2020/12/04 05:27:53;;;;;;;3.00;2.70;;;21.20;40.30;;;;;;4969107;28;20435;-75
2020/12/04 05:30:24;;;;;;;2.95;2.75;;;21.20;40.20;;;;;;4968373;28;20817;-75
2020/12/04 05:33:00;;;;;;;3.08;2.78;;;21.30;40.20;;;;;;4971120;28;20483;-75
2020/12/04 05:35:27;;;;;;;3.23;2.93;;;21.30;40.20;;;;;;4973338;28;20422;-75
2020/12/04 05:38:08;;;;;;;2.80;2.60;;;21.30;40.10;;;;;;4973778;28;20443;-75
2020/12/04 05:40:35;;;;;;;2.97;2.67;;;21.30;40.00;;;;;;4963736;28;20815;-75
2020/12/04 05:43:02;;;;;;;3.30;3.00;;;21.30;40.00;;;;;;4964482;28;20816;-75
2020/12/04 05:45:29;;;;;;;3.10;2.83;;;21.30;40.10;;;;;;4965509;28;20967;-75
2020/12/04 05:47:55;;;;;;;3.20;3.00;;;21.30;40.10;;;;;;4967325;28;20440;-76
2020/12/04 05:50:21;;;;;;;2.95;2.75;;;21.40;40.00;;;;;;4968589;28;20469;-76
2020/12/04 05:52:49;;;;;;;2.90;2.70;;;21.20;40.10;;;;;;4966630;28;20477;-76
2020/12/04 05:55:16;;;;;;;3.83;2.72;;;21.30;40.10;;;;;;4967435;28;20438;-76
2020/12/04 05:57:46;;;;;;;2.95;2.75;;;21.30;40.00;;;;;;4964635;28;20914;-76
2020/12/04 06:00:13;;;;;;;3.13;2.85;;;21.30;40.00;;;;;;4968882;28;20906;-76
2020/12/04 06:02:39;;;;;;;2.90;2.60;;;21.40;40.00;;;;;;4961267;28;20462;-75
2020/12/04 06:05:06;;;;;;;2.72;2.53;;;21.20;40.60;;;;;;4961593;28;20949;-75
2020/12/04 06:07:33;;;;;;;3.03;2.83;;;21.30;40.10;;;;;;4969226;28;20434;-75
2020/12/04 06:10:00;;;;;;;3.15;2.95;;;21.30;40.30;;;;;;4970195;28;20450;-75
2020/12/04 06:12:26;;;;;;;2.90;2.70;;;21.30;40.00;;;;;;4966417;28;20434;-74
2020/12/04 06:14:53;;;;;;;2.90;2.67;;;21.30;40.00;;;;;;4967982;28;20841;-74
2020/12/04 06:17:19;;;;;;;3.22;2.92;;;21.30;40.10;;;;;;4963918;28;20450;-74
2020/12/04 06:19:46;;;;;;;3.10;2.90;;;21.30;40.10;;;;;;4968756;28;21701;-74
2020/12/04 06:22:13;;;;;;;3.17;2.88;;;21.20;40.20;;;;;;4968064;28;20436;-74
2020/12/04 06:25:02;;;;;;;3.15;2.85;;;21.20;40.30;;;;;;4968154;28;20445;-74
2020/12/04 06:27:41;;;;;;;2.72;2.53;;;21.20;40.20;;;;;;4971820;28;20435;-75
2020/12/04 06:30:09;;;;;;;3.30;2.83;;;21.20;40.20;;;;;;4968726;28;20445;-75
2020/12/04 06:32:35;;;;;;;3.33;2.92;;;21.20;40.20;;;;;;4967218;28;20451;-74
2020/12/04 06:35:02;;;;;;;2.60;2.40;;;21.20;40.10;;;;;;4961505;28;20529;-75
2020/12/04 06:37:39;;;;;;;2.83;2.63;;;21.20;40.20;;;;;;4961255;28;20436;-75
2020/12/04 06:40:26;;;;;;;2.90;2.60;;;21.20;40.10;;;;;;4968765;28;20458;-75
2020/12/04 06:42:53;;;;;;;4.07;2.90;;;21.10;40.20;;;;;;4964521;28;20434;-74
2020/12/04 06:45:19;;;;;;;2.75;2.55;;;21.10;40.50;;;;;;4968605;28;20446;-75
2020/12/04 06:48:10;;;;;;;3.28;3.08;;;21.10;40.60;;;;;;4965772;28;20432;-75
2020/12/04 06:50:38;;;;;;;2.80;2.53;;;21.40;40.10;;;;;;4968576;28;20491;-75
2020/12/04 06:53:09;;;;;;;3.15;2.92;;;21.80;39.70;;;;;;4966378;28;20443;-75
2020/12/04 06:55:36;;;;;;;3.55;3.25;;;22.00;39.30;;;;;;4969670;28;20446;-76
2020/12/04 06:58:02;;;;;;;3.50;3.20;;;22.10;39.10;;;;;;4967540;28;20997;-76
2020/12/04 07:00:28;;;;;;;3.53;3.17;;;22.40;38.90;;;;;;4974103;28;20418;-76
2020/12/04 07:02:55;;;;;;;3.00;2.80;;;22.50;38.60;;;;;;4969878;28;20436;-75
2020/12/04 07:05:24;;;;;;;3.33;3.08;;;22.60;38.40;;;;;;4973327;28;20436;-76
2020/12/04 07:08:00;;;;;;;2.97;2.78;;;22.80;38.40;;;;;;4972929;28;20445;-76
2020/12/04 07:10:27;;;;;;;4.05;3.08;;;22.90;38.30;;;;;;4972506;28;20432;-76
2020/12/04 07:12:59;;;;;;;3.17;2.90;;;23.00;38.20;;;;;;4981894;28;20465;-77
2020/12/04 07:15:25;;;;;;;3.07;2.83;;;23.10;38.00;;;;;;4991830;28;20424;-77
2020/12/04 07:17:52;;;;;;;3.13;2.88;;;23.20;37.90;;;;;;4967425;28;20476;-77
2020/12/04 07:20:19;;;;;;;3.33;3.08;;;23.30;37.70;;;;;;4969878;28;20440;-77
2020/12/04 07:22:45;;;;;;;3.50;3.20;;;23.40;37.70;;;;;;4972671;28;20444;-80
2020/12/04 07:25:11;;;;;;;3.37;3.10;;;23.40;37.90;;;;;;4979071;28;20445;-81
2020/12/04 07:27:38;;;;;;;4.03;3.17;;;23.50;38.00;;;;;;4979228;28;20451;-76
2020/12/04 07:30:14;;;;;;;3.20;2.90;;;23.60;38.20;;;;;;4975544;28;20431;-77
2020/12/04 07:32:48;;;;;;;11.15;2.97;;;23.80;38.20;;;;;;4972587;28;20511;-78
2020/12/04 07:35:15;;;;;;;3.33;3.03;;;23.80;38.20;;;;;;4972091;28;20434;-80
2020/12/04 07:37:41;;;;;;;4.25;2.90;;;23.90;38.20;;;;;;4974471;28;20434;-79
2020/12/04 07:40:07;;;;;;;3.28;2.97;;;24.00;38.30;;;;;;4969212;28;21795;-78
2020/12/04 07:42:34;;;;;;;3.00;2.80;;;24.00;38.60;;;;;;4968955;28;20439;-77
2020/12/04 07:45:00;;;;;;;2.95;2.67;;;24.00;38.80;;;;;;4973887;28;20434;-77
2020/12/04 07:47:28;;;;;;;2.70;2.50;;;24.00;38.80;;;;;;4973571;28;21082;-78
2020/12/04 07:49:58;;;;;;;2.85;2.65;;;24.00;38.90;;;;;;4977249;28;20432;-78
2020/12/04 07:52:26;;;;;;;2.95;2.65;;;23.90;39.00;;;;;;4972662;28;20935;-78
2020/12/04 07:54:57;;;;;;;2.63;2.42;;;23.80;39.40;;;;;;4978374;28;20877;-77
2020/12/04 07:57:28;;;;;;;3.08;2.88;;;23.60;39.90;;;;;;4974180;28;20595;-78
2020/12/04 07:59:56;;;;;;;3.05;2.85;;;23.50;40.10;;;;;;4970272;28;20448;-78
2020/12/04 08:02:25;;;;;;;3.37;3.07;;;23.50;40.50;;;;;;4971353;28;20519;-79
2020/12/04 08:04:52;;;;;;;2.60;2.40;;;23.40;40.40;;;;;;4963359;28;20433;-79
2020/12/04 08:07:18;;;;;;;2.70;2.50;;;23.20;40.90;;;;;;4964738;28;20943;-78
2020/12/04 08:09:47;;;;;;;3.25;2.53;;;23.20;41.00;;;;;;4973095;28;20445;-79
2020/12/04 08:12:17;;;;;;;2.53;2.33;;;23.10;41.30;;;;;;4961809;28;20443;-76
2020/12/04 08:14:49;;;;;;;2.78;2.50;;;23.10;41.40;;;;;;4970033;28;20441;-76
2020/12/04 08:17:18;;;;;;;2.70;2.50;;;23.20;41.40;;;;;;4969799;28;20438;-77
2020/12/04 08:19:45;;;;;;;2.30;2.10;;;23.20;41.20;;;;;;4967216;28;20459;-77
2020/12/04 08:22:12;;;;;;;2.70;2.50;;;23.20;41.20;;;;;;4968984;28;20440;-79
2020/12/04 08:24:40;;;;;;;2.95;2.65;;;23.20;41.40;;;;;;4979680;28;20439;-78
2020/12/04 08:27:11;;;;;;;2.50;2.30;;;23.10;41.50;;;;;;4973983;28;20438;-77
2020/12/04 08:29:39;;;;;;;3.03;2.83;;;23.20;41.20;;;;;;4972133;28;20435;-78
2020/12/04 08:32:11;;;;;;;3.00;2.80;;;23.30;40.40;;;;;;4971518;28;20437;-78
2020/12/04 08:34:38;;;;;;;3.05;2.85;;;23.60;40.00;;;;;;4974938;28;20506;-78
2020/12/04 08:37:08;;;;;;;3.17;2.92;;;23.50;40.00;;;;;;4975358;28;20424;-78
2020/12/04 08:39:46;;;;;;;4.77;3.23;;;23.70;40.00;;;;;;4970210;28;20448;-77
2020/12/04 08:42:15;;;;;;;3.35;3.13;;;23.70;39.70;;;;;;4963439;28;20806;-78
2020/12/04 08:44:42;;;;;;;3.65;3.35;;;23.70;39.40;;;;;;4976322;28;20437;-78
2020/12/04 08:47:09;;;;;;;3.95;3.65;;;23.70;39.10;;;;;;4975154;28;20612;-77
2020/12/04 08:49:35;;;;;;;3.70;3.35;;;23.70;38.60;;;;;;4966964;28;20436;-77
2020/12/04 08:52:03;;;;;;;3.90;3.60;;;23.60;38.50;;;;;;4973528;28;20456;-77
2020/12/04 08:54:29;;;;;;;3.67;3.30;;;23.60;38.50;;;;;;4978386;28;20467;-77
2020/12/04 08:56:56;;;;;;;4.18;3.42;;;23.60;38.30;;;;;;4976630;28;20438;-77
2020/12/04 08:59:23;;;;;;;3.67;3.07;;;23.70;38.70;;;;;;4973594;28;20542;-77
2020/12/04 09:01:51;;;;;;;3.80;3.47;;;23.70;38.00;;;;;;4979545;28;20944;-77
2020/12/04 09:04:17;;;;;;;3.28;2.97;;;23.70;38.20;;;;;;4977205;28;20440;-77
2020/12/04 09:06:43;;;;;;;3.38;3.00;;;23.70;38.30;;;;;;4968862;28;20434;-77
2020/12/04 09:09:09;;;;;;;3.95;2.92;;;23.70;38.40;;;;;;4971971;28;20438;-76
2020/12/04 09:11:36;;;;;;;3.63;3.33;;;23.70;38.60;;;;;;4972415;28;20433;-78
2020/12/04 09:14:03;;;;;;;3.38;2.90;;;23.70;38.80;;;;;;4969887;28;20443;-78
2020/12/04 09:16:29;;;;;;;3.78;3.13;;;23.80;38.90;;;;;;4979314;28;20438;-78
2020/12/04 09:18:55;;;;;;;3.40;3.10;;;23.80;38.80;;;;;;4980355;28;20421;-79
2020/12/04 09:21:21;;;;;;;3.17;2.88;;;23.80;38.90;;;;;;4974851;28;20446;-78
2020/12/04 09:23:48;;;;;;;3.42;3.13;;;23.80;39.10;;;;;;4978254;28;20442;-78
2020/12/04 09:26:14;;;;;;;3.00;2.80;;;23.80;39.30;;;;;;4979362;28;20529;-79
2020/12/04 09:28:40;;;;;;;3.10;2.80;;;23.70;39.40;;;;;;4970521;28;20436;-78
2020/12/04 09:31:07;;;;;;;2.90;2.67;;;23.60;39.70;;;;;;4979269;28;20418;-79
2020/12/04 09:33:33;;;;;;;3.20;3.00;;;23.50;40.00;;;;;;4977787;28;20438;-80
2020/12/04 09:36:00;;;;;;;4.18;3.00;;;23.40;40.40;;;;;;4979981;28;20924;-79
2020/12/04 09:38:26;;;;;;;2.60;2.40;;;23.40;40.60;;;;;;4980594;28;20436;-79
2020/12/04 09:40:52;;;;;;;2.60;2.40;;;23.30;40.80;;;;;;4972841;28;20931;-76
2020/12/04 09:43:19;;;;;;;2.97;2.70;;;23.30;40.60;;;;;;4969358;28;20439;-76
2020/12/04 09:45:45;;;;;;;2.93;2.63;;;23.30;40.40;;;;;;4979076;28;20459;-76
2020/12/04 09:48:12;;;;;;;3.42;2.80;;;23.30;40.20;;;;;;4978625;28;21663;-77
2020/12/04 09:50:38;;;;;;;3.58;2.90;;;23.30;40.00;;;;;;4972313;28;20436;-77
2020/12/04 09:53:05;;;;;;;3.55;2.83;;;23.30;40.10;;;;;;4970266;28;20798;-77
2020/12/04 09:55:32;;;;;;;3.90;3.13;;;23.30;40.10;;;;;;4973318;28;20456;-78
2020/12/04 09:57:58;;;;;;;4.05;2.92;;;23.20;40.10;;;;;;4976530;28;20426;-78
2020/12/04 10:00:24;;;;;;;3.83;2.80;;;23.30;40.10;;;;;;4967783;28;20463;-78
2020/12/04 10:02:50;;;;;;;2.97;2.70;;;23.30;40.30;;;;;;4976344;28;20527;-78
2020/12/04 10:05:17;;;;;;;3.53;2.90;;;23.40;40.20;;;;;;4970190;28;20445;-78
2020/12/04 10:07:47;;;;;;;3.42;2.78;;;23.50;40.00;;;;;;4972422;28;20438;-78
2020/12/04 10:10:15;;;;;;;3.08;2.65;;;23.70;39.90;;;;;;4967621;28;20436;-78
2020/12/04 10:12:41;;;;;;;2.90;2.70;;;23.80;39.70;;;;;;4964269;28;20436;-78
2020/12/04 10:15:07;;;;;;;3.17;2.88;;;23.90;39.70;;;;;;4971745;28;20448;-78
